Time;durP1;ratioP1;P1;durP2;ratioP2;P2;SDS_P1;SDS_P2;PMS_P1;PMS_P2;Temp;Humidity;BMP_temperature;BMP_pressure;BME280_temperature;BME280_humidity;BME280_pressure;Samples;Min_cycle;Max_cycle;Signal;HPM_P1;HPM_P2
2022/10/08 00:00:00;;;;;;;11.40;7.20;;;;;;;;;;341172;28;1267;-80
2022/10/08 00:00:10;;;;;;;12.93;7.50;;;;;;;;;;344201;28;1408;-81
2022/10/08 00:00:21;;;;;;;11.10;7.80;;;;;;;;;;344100;28;1176;-80
2022/10/08 00:00:31;;;;;;;11.87;8.57;;;;;;;;;;342790;28;1494;-80
2022/10/08 00:00:46;;;;;;;10.98;8.95;;;;;;;;;;338786;29;1255;-80
2022/10/08 00:00:58;;;;;;;11.57;9.38;;;;;;;;;;338748;29;1345;-81
2022/10/08 00:01:10;;;;;;;11.07;8.40;;;;;;;;;;340154;29;912;-80
2022/10/08 00:01:20;;;;;;;13.13;8.10;;;;;;;;;;340129;29;1315;-81
2022/10/08 00:01:31;;;;;;;13.45;7.70;;;;;;;;;;339981;29;1387;-80
2022/10/08 00:01:41;;;;;;;13.30;8.10;;;;;;;;;;341221;29;773;-81
2022/10/08 00:01:52;;;;;;;10.68;7.85;;;;;;;;;;341412;28;1540;-80
2022/10/08 00:02:02;;;;;;;11.77;8.13;;;;;;;;;;342454;28;1295;-80
2022/10/08 00:02:13;;;;;;;11.98;7.80;;;;;;;;;;341366;29;1303;-81
2022/10/08 00:02:25;;;;;;;12.18;7.95;;;;;;;;;;342934;28;880;-80
2022/10/08 00:02:36;;;;;;;10.82;7.80;;;;;;;;;;341382;29;1254;-81
2022/10/08 00:02:46;;;;;;;10.67;7.50;;;;;;;;;;340020;29;1178;-80
2022/10/08 00:02:57;;;;;;;14.13;7.60;;;;;;;;;;341246;29;1166;-80
2022/10/08 00:03:07;;;;;;;13.87;7.73;;;;;;;;;;341124;29;1387;-80
2022/10/08 00:03:18;;;;;;;14.50;7.97;;;;;;;;;;341379;29;1305;-80
2022/10/08 00:03:31;;;;;;;13.52;8.27;;;;;;;;;;341447;29;1320;-80
2022/10/08 00:03:43;;;;;;;14.02;8.25;;;;;;;;;;338744;29;1209;-80
2022/10/08 00:03:54;;;;;;;13.38;8.27;;;;;;;;;;341567;29;844;-81
2022/10/08 00:04:04;;;;;;;14.77;8.10;;;;;;;;;;341201;29;1400;-81
2022/10/08 00:04:15;;;;;;;14.50;8.25;;;;;;;;;;341441;29;1564;-81
2022/10/08 00:04:25;;;;;;;13.23;8.07;;;;;;;;;;340179;29;1150;-80
2022/10/08 00:04:36;;;;;;;10.70;7.47;;;;;;;;;;338797;29;943;-80
2022/10/08 00:04:46;;;;;;;9.82;7.57;;;;;;;;;;340164;29;1416;-80
2022/10/08 00:04:57;;;;;;;10.10;7.53;;;;;;;;;;340289;29;880;-80
2022/10/08 00:05:08;;;;;;;10.93;7.80;;;;;;;;;;339827;29;1358;-81
2022/10/08 00:05:18;;;;;;;12.23;7.77;;;;;;;;;;338705;29;1281;-81
2022/10/08 00:05:28;;;;;;;14.43;7.90;;;;;;;;;;338872;29;916;-81
2022/10/08 00:05:39;;;;;;;14.17;7.90;;;;;;;;;;338918;29;1377;-81
2022/10/08 00:05:57;;;;;;;14.38;7.90;;;;;;;;;;338908;29;987;-80
2022/10/08 00:06:37;;;;;;;12.65;7.78;;;;;;;;;;339857;29;1257;-81
2022/10/08 00:06:47;;;;;;;13.25;8.05;;;;;;;;;;336149;29;1142;-81
2022/10/08 00:06:58;;;;;;;12.67;8.20;;;;;;;;;;337516;29;1515;-81
2022/10/08 00:07:08;;;;;;;12.25;8.38;;;;;;;;;;335883;29;1538;-81
2022/10/08 00:07:18;;;;;;;12.30;8.17;;;;;;;;;;336317;29;1341;-80
2022/10/08 00:07:29;;;;;;;12.50;8.25;;;;;;;;;;337524;29;1413;-81
2022/10/08 00:07:43;;;;;;;11.90;8.03;;;;;;;;;;337464;29;1299;-81
2022/10/08 00:07:53;;;;;;;12.65;8.32;;;;;;;;;;338947;29;853;-80
2022/10/08 00:08:04;;;;;;;11.40;7.97;;;;;;;;;;339830;29;1142;-81
2022/10/08 00:08:15;;;;;;;10.70;7.65;;;;;;;;;;340001;29;1589;-81
2022/10/08 00:08:26;;;;;;;10.80;7.95;;;;;;;;;;338802;29;1233;-80
2022/10/08 00:08:37;;;;;;;11.32;7.97;;;;;;;;;;337524;29;770;-81
2022/10/08 00:08:49;;;;;;;12.18;8.00;;;;;;;;;;338841;29;998;-80
2022/10/08 00:09:02;;;;;;;11.75;7.88;;;;;;;;;;340087;29;1401;-81
2022/10/08 00:09:12;;;;;;;10.80;7.75;;;;;;;;;;337354;29;1243;-80
2022/10/08 00:09:23;;;;;;;11.70;7.72;;;;;;;;;;337517;29;1314;-81
2022/10/08 00:09:33;;;;;;;12.53;8.03;;;;;;;;;;338788;29;956;-81
2022/10/08 00:09:44;;;;;;;12.05;8.15;;;;;;;;;;338809;29;896;-81
2022/10/08 00:09:54;;;;;;;12.57;8.27;;;;;;;;;;338801;29;1415;-80
2022/10/08 00:10:06;;;;;;;11.38;8.05;;;;;;;;;;338473;29;1183;-80
2022/10/08 00:10:16;;;;;;;10.73;7.70;;;;;;;;;;339552;29;900;-80
2022/10/08 00:10:27;;;;;;;9.98;7.43;;;;;;;;;;340034;29;1324;-81
2022/10/08 00:10:37;;;;;;;10.80;7.50;;;;;;;;;;338798;29;1547;-81
2022/10/08 00:10:52;;;;;;;12.00;7.88;;;;;;;;;;337561;29;876;-80
2022/10/08 00:11:08;;;;;;;11.93;8.20;;;;;;;;;;335993;29;1495;-81
2022/10/08 00:11:22;;;;;;;11.68;8.48;;;;;;;;;;338790;29;842;-81
2022/10/08 00:11:37;;;;;;;11.35;8.10;;;;;;;;;;340001;29;1456;-80
2022/10/08 00:11:47;;;;;;;11.50;8.48;;;;;;;;;;338843;29;1026;-81
2022/10/08 00:11:58;;;;;;;10.95;8.15;;;;;;;;;;337572;29;1535;-80
2022/10/08 00:12:08;;;;;;;11.10;8.00;;;;;;;;;;338516;29;1405;-81
2022/10/08 00:12:19;;;;;;;11.50;7.95;;;;;;;;;;340117;29;833;-80
2022/10/08 00:12:29;;;;;;;14.77;8.57;;;;;;;;;;340094;29;927;-80
2022/10/08 00:12:40;;;;;;;14.50;8.57;;;;;;;;;;340229;29;813;-80
2022/10/08 00:12:50;;;;;;;13.80;8.27;;;;;;;;;;340167;29;1050;-81
2022/10/08 00:13:01;;;;;;;11.68;8.00;;;;;;;;;;338815;29;893;-80
2022/10/08 00:13:11;;;;;;;11.32;7.72;;;;;;;;;;338536;29;860;-81
2022/10/08 00:13:22;;;;;;;10.37;7.33;;;;;;;;;;338893;29;948;-81
2022/10/08 00:13:40;;;;;;;10.32;7.40;;;;;;;;;;340073;29;876;-81
2022/10/08 00:13:50;;;;;;;11.30;7.72;;;;;;;;;;339834;29;880;-80
2022/10/08 00:14:01;;;;;;;11.20;7.47;;;;;;;;;;337490;29;924;-81
2022/10/08 00:14:12;;;;;;;12.73;7.82;;;;;;;;;;338400;29;1334;-80
2022/10/08 00:14:22;;;;;;;13.70;8.13;;;;;;;;;;338857;29;869;-81
2022/10/08 00:14:32;;;;;;;14.27;8.57;;;;;;;;;;338856;29;892;-81
2022/10/08 00:14:43;;;;;;;11.73;8.52;;;;;;;;;;337443;29;1286;-80
2022/10/08 00:14:53;;;;;;;10.10;8.23;;;;;;;;;;340133;29;1163;-81
2022/10/08 00:15:04;;;;;;;9.55;7.88;;;;;;;;;;338951;29;899;-80
2022/10/08 00:15:15;;;;;;;10.35;7.45;;;;;;;;;;337426;29;896;-81
2022/10/08 00:15:26;;;;;;;12.90;7.83;;;;;;;;;;337464;29;1179;-81
2022/10/08 00:15:37;;;;;;;13.88;8.05;;;;;;;;;;337532;29;853;-80
2022/10/08 00:15:47;;;;;;;13.73;7.97;;;;;;;;;;338790;29;1266;-80
2022/10/08 00:15:57;;;;;;;13.83;8.27;;;;;;;;;;337602;29;946;-80
2022/10/08 00:16:14;;;;;;;12.40;7.88;;;;;;;;;;337295;29;1402;-80
2022/10/08 00:16:25;;;;;;;12.73;7.97;;;;;;;;;;338851;29;844;-80
2022/10/08 00:16:37;;;;;;;12.88;7.28;;;;;;;;;;338769;29;1391;-80
2022/10/08 00:16:48;;;;;;;11.40;6.95;;;;;;;;;;338828;29;947;-81
2022/10/08 00:16:58;;;;;;;9.97;6.80;;;;;;;;;;338780;29;1201;-81
2022/10/08 00:17:09;;;;;;;10.07;6.93;;;;;;;;;;337319;29;1525;-81
2022/10/08 00:17:19;;;;;;;12.00;7.70;;;;;;;;;;338661;29;1275;-80
2022/10/08 00:17:30;;;;;;;13.10;7.93;;;;;;;;;;338769;29;896;-80
2022/10/08 00:17:40;;;;;;;12.70;7.93;;;;;;;;;;339691;29;1402;-80
2022/10/08 00:17:51;;;;;;;10.82;7.60;;;;;;;;;;337551;29;846;-83
2022/10/08 00:18:01;;;;;;;10.30;7.53;;;;;;;;;;340140;29;1334;-81
2022/10/08 00:18:12;;;;;;;13.55;8.20;;;;;;;;;;339921;29;848;-80
2022/10/08 00:18:22;;;;;;;13.17;7.73;;;;;;;;;;340025;29;1192;-81
2022/10/08 00:18:33;;;;;;;12.82;7.70;;;;;;;;;;337380;29;1440;-82
2022/10/08 00:18:44;;;;;;;9.57;6.93;;;;;;;;;;337449;29;846;-81
2022/10/08 00:18:57;;;;;;;10.90;7.18;;;;;;;;;;340099;29;952;-81
2022/10/08 00:19:12;;;;;;;11.45;7.30;;;;;;;;;;337246;29;1353;-80
2022/10/08 00:19:22;;;;;;;11.38;7.10;;;;;;;;;;338603;29;1378;-80
2022/10/08 00:19:33;;;;;;;12.50;7.23;;;;;;;;;;338808;29;1216;-81
2022/10/08 00:19:43;;;;;;;14.57;7.60;;;;;;;;;;338888;29;860;-81
2022/10/08 00:19:56;;;;;;;14.43;7.77;;;;;;;;;;337565;29;1382;-81
2022/10/08 00:20:08;;;;;;;12.23;7.40;;;;;;;;;;338855;29;982;-81
2022/10/08 00:20:20;;;;;;;11.55;7.43;;;;;;;;;;340091;29;931;-81
2022/10/08 00:20:32;;;;;;;12.10;7.55;;;;;;;;;;340119;29;939;-81
2022/10/08 00:20:42;;;;;;;12.32;7.70;;;;;;;;;;340157;29;884;-81
2022/10/08 00:21:03;;;;;;;10.35;7.40;;;;;;;;;;340191;29;904;-81
2022/10/08 00:21:24;;;;;;;10.35;7.25;;;;;;;;;;338522;29;872;-81
2022/10/08 00:21:36;;;;;;;13.27;8.02;;;;;;;;;;340166;29;1003;-81
2022/10/08 00:21:49;;;;;;;12.32;7.88;;;;;;;;;;340206;29;908;-81
2022/10/08 00:22:00;;;;;;;12.88;7.57;;;;;;;;;;338898;29;856;-82
2022/10/08 00:22:10;;;;;;;15.73;7.80;;;;;;;;;;338548;29;876;-81
2022/10/08 00:22:21;;;;;;;16.33;8.10;;;;;;;;;;337373;29;1344;-81
2022/10/08 00:22:31;;;;;;;15.07;7.95;;;;;;;;;;340014;29;1258;-80
2022/10/08 00:22:42;;;;;;;12.23;7.73;;;;;;;;;;338860;29;883;-81
2022/10/08 00:22:52;;;;;;;11.13;7.32;;;;;;;;;;338927;29;869;-81
2022/10/08 00:23:03;;;;;;;9.93;6.83;;;;;;;;;;338807;29;969;-81
2022/10/08 00:23:13;;;;;;;9.75;7.10;;;;;;;;;;338439;29;964;-81
2022/10/08 00:23:23;;;;;;;11.40;7.30;;;;;;;;;;337290;29;1314;-80
2022/10/08 00:23:34;;;;;;;11.50;7.38;;;;;;;;;;337580;29;750;-81
2022/10/08 00:23:48;;;;;;;12.67;6.97;;;;;;;;;;338884;29;813;-81
2022/10/08 00:24:00;;;;;;;11.40;7.03;;;;;;;;;;340187;29;856;-82
2022/10/08 00:24:15;;;;;;;10.57;6.95;;;;;;;;;;338548;29;1395;-81
2022/10/08 00:24:26;;;;;;;10.98;6.95;;;;;;;;;;338633;29;939;-81
2022/10/08 00:24:38;;;;;;;11.27;7.15;;;;;;;;;;340124;29;844;-80
2022/10/08 00:24:52;;;;;;;10.75;7.38;;;;;;;;;;338831;29;924;-81
2022/10/08 00:25:02;;;;;;;10.00;7.65;;;;;;;;;;339693;29;934;-81
2022/10/08 00:25:13;;;;;;;11.52;7.43;;;;;;;;;;338459;29;1433;-82
2022/10/08 00:25:24;;;;;;;12.27;7.47;;;;;;;;;;339990;29;1461;-81
2022/10/08 00:25:40;;;;;;;12.17;7.17;;;;;;;;;;337513;29;861;-81
2022/10/08 00:25:50;;;;;;;9.70;6.97;;;;;;;;;;338814;29;896;-82
2022/10/08 00:26:02;;;;;;;11.20;7.17;;;;;;;;;;338524;29;1270;-80
2022/10/08 00:26:13;;;;;;;11.70;7.55;;;;;;;;;;337156;29;826;-81
2022/10/08 00:26:25;;;;;;;12.13;7.45;;;;;;;;;;338654;29;1468;-81
2022/10/08 00:26:36;;;;;;;11.43;7.38;;;;;;;;;;336275;29;841;-82
2022/10/08 00:26:46;;;;;;;11.37;7.47;;;;;;;;;;337554;29;802;-83
2022/10/08 00:26:58;;;;;;;12.00;7.78;;;;;;;;;;338881;29;868;-81
2022/10/08 00:27:11;;;;;;;12.73;8.43;;;;;;;;;;341521;29;919;-81
2022/10/08 00:27:25;;;;;;;11.43;7.78;;;;;;;;;;338764;29;873;-81
2022/10/08 00:27:35;;;;;;;10.15;7.05;;;;;;;;;;338760;29;1310;-80
2022/10/08 00:27:46;;;;;;;10.47;6.93;;;;;;;;;;338821;29;912;-81
2022/10/08 00:27:56;;;;;;;9.95;6.80;;;;;;;;;;341413;28;1262;-80
2022/10/08 00:28:08;;;;;;;10.10;6.90;;;;;;;;;;336223;29;1164;-82
2022/10/08 00:28:19;;;;;;;10.38;7.15;;;;;;;;;;338360;29;1400;-81
2022/10/08 00:28:29;;;;;;;11.77;7.30;;;;;;;;;;341288;29;1348;-81
2022/10/08 00:28:41;;;;;;;12.70;7.10;;;;;;;;;;341392;29;1320;-81
2022/10/08 00:28:54;;;;;;;11.80;6.72;;;;;;;;;;338748;29;1295;-81
2022/10/08 00:29:05;;;;;;;10.88;6.75;;;;;;;;;;337552;29;880;-81
2022/10/08 00:29:16;;;;;;;11.55;7.32;;;;;;;;;;337212;29;865;-80
2022/10/08 00:29:27;;;;;;;10.93;7.35;;;;;;;;;;338665;29;1415;-81
2022/10/08 00:29:37;;;;;;;10.47;7.10;;;;;;;;;;338710;29;1323;-81
2022/10/08 00:29:50;;;;;;;10.15;7.55;;;;;;;;;;338750;29;1298;-80
2022/10/08 00:30:02;;;;;;;9.68;8.25;;;;;;;;;;338766;29;1242;-81
2022/10/08 00:30:13;;;;;;;9.85;8.45;;;;;;;;;;337173;29;1292;-80
2022/10/08 00:30:24;;;;;;;10.48;7.55;;;;;;;;;;337405;29;1553;-81
2022/10/08 00:30:38;;;;;;;11.13;8.00;;;;;;;;;;340141;29;809;-81
2022/10/08 00:30:49;;;;;;;13.02;7.38;;;;;;;;;;339975;29;1373;-82
2022/10/08 00:31:09;;;;;;;13.33;7.30;;;;;;;;;;337585;29;864;-81
2022/10/08 00:31:28;;;;;;;12.73;7.55;;;;;;;;;;335894;29;948;-81
2022/10/08 00:31:40;;;;;;;11.20;7.70;;;;;;;;;;337395;29;877;-81
2022/10/08 00:31:50;;;;;;;10.65;7.50;;;;;;;;;;337552;29;829;-81
2022/10/08 00:32:01;;;;;;;10.80;7.47;;;;;;;;;;338860;29;876;-81
2022/10/08 00:32:11;;;;;;;10.70;7.40;;;;;;;;;;338844;29;833;-81
2022/10/08 00:32:22;;;;;;;11.00;7.22;;;;;;;;;;335057;29;1477;-81
2022/10/08 00:32:32;;;;;;;10.03;6.67;;;;;;;;;;336853;29;885;-82
2022/10/08 00:32:43;;;;;;;10.05;6.38;;;;;;;;;;338549;29;947;-81
2022/10/08 00:32:55;;;;;;;11.23;6.75;;;;;;;;;;338890;29;587;-82
2022/10/08 00:33:06;;;;;;;13.80;7.70;;;;;;;;;;338879;29;860;-80
2022/10/08 00:33:16;;;;;;;14.77;8.40;;;;;;;;;;339755;29;948;-81
2022/10/08 00:33:27;;;;;;;14.63;8.83;;;;;;;;;;340150;29;581;-81
2022/10/08 00:33:38;;;;;;;11.70;8.40;;;;;;;;;;340199;29;888;-81
2022/10/08 00:33:49;;;;;;;12.77;8.07;;;;;;;;;;342783;28;935;-82
2022/10/08 00:34:02;;;;;;;12.30;7.60;;;;;;;;;;340178;29;860;-81
2022/10/08 00:34:15;;;;;;;10.30;7.15;;;;;;;;;;339812;29;992;-80
2022/10/08 00:34:26;;;;;;;10.43;7.53;;;;;;;;;;336057;29;1638;-81
2022/10/08 00:34:38;;;;;;;10.05;7.18;;;;;;;;;;338838;29;790;-81
2022/10/08 00:34:49;;;;;;;11.88;7.40;;;;;;;;;;338763;29;909;-81
2022/10/08 00:34:59;;;;;;;11.93;6.95;;;;;;;;;;340090;29;1186;-80
2022/10/08 00:35:10;;;;;;;11.87;7.00;;;;;;;;;;340102;29;1429;-81
2022/10/08 00:35:20;;;;;;;11.18;7.32;;;;;;;;;;337070;29;1392;-81
2022/10/08 00:35:38;;;;;;;10.53;7.50;;;;;;;;;;339919;29;1150;-81
2022/10/08 00:35:49;;;;;;;8.88;6.90;;;;;;;;;;341102;29;1258;-81
2022/10/08 00:36:00;;;;;;;8.70;6.88;;;;;;;;;;339955;29;1308;-81
2022/10/08 00:36:11;;;;;;;12.45;7.22;;;;;;;;;;336114;29;837;-81
2022/10/08 00:36:27;;;;;;;13.38;7.35;;;;;;;;;;335841;29;1972;-81
2022/10/08 00:36:38;;;;;;;10.52;7.03;;;;;;;;;;337476;29;1769;-81
2022/10/08 00:36:52;;;;;;;9.93;6.78;;;;;;;;;;338605;29;1307;-81
2022/10/08 00:37:03;;;;;;;9.77;7.00;;;;;;;;;;340098;29;1473;-82
2022/10/08 00:37:14;;;;;;;9.83;6.97;;;;;;;;;;339784;29;1253;-81
2022/10/08 00:37:25;;;;;;;12.90;7.72;;;;;;;;;;341482;29;884;-83
2022/10/08 00:37:36;;;;;;;14.27;7.60;;;;;;;;;;340235;29;935;-81
2022/10/08 00:37:46;;;;;;;13.32;7.30;;;;;;;;;;338682;29;1190;-81
2022/10/08 00:37:57;;;;;;;14.07;7.47;;;;;;;;;;338833;29;1119;-81
2022/10/08 00:38:07;;;;;;;13.10;7.30;;;;;;;;;;337479;29;857;-81
2022/10/08 00:38:18;;;;;;;11.83;7.33;;;;;;;;;;338137;29;1250;-81
2022/10/08 00:38:28;;;;;;;12.40;7.13;;;;;;;;;;340097;29;1362;-80
2022/10/08 00:38:39;;;;;;;13.52;7.55;;;;;;;;;;337373;29;1344;-81
2022/10/08 00:38:56;;;;;;;13.33;7.80;;;;;;;;;;338691;29;1370;-81
2022/10/08 00:39:10;;;;;;;11.10;7.32;;;;;;;;;;338835;29;888;-81
2022/10/08 00:39:22;;;;;;;11.52;7.00;;;;;;;;;;338494;29;861;-81
2022/10/08 00:39:32;;;;;;;10.43;7.20;;;;;;;;;;336123;29;1244;-81
2022/10/08 00:39:43;;;;;;;10.77;7.55;;;;;;;;;;337463;29;814;-81
2022/10/08 00:39:53;;;;;;;11.67;7.60;;;;;;;;;;339614;29;1270;-80
2022/10/08 00:40:04;;;;;;;12.77;7.93;;;;;;;;;;338798;29;1409;-81
2022/10/08 00:40:15;;;;;;;13.48;7.72;;;;;;;;;;338568;29;856;-81
2022/10/08 00:40:25;;;;;;;13.80;7.97;;;;;;;;;;336236;29;810;-82
2022/10/08 00:40:43;;;;;;;13.40;7.45;;;;;;;;;;338800;29;1321;-80
2022/10/08 00:40:53;;;;;;;13.60;7.47;;;;;;;;;;340067;29;1469;-81
2022/10/08 00:41:04;;;;;;;13.68;7.30;;;;;;;;;;339985;29;1430;-80
2022/10/08 00:41:19;;;;;;;12.90;7.35;;;;;;;;;;339926;29;959;-81
2022/10/08 00:41:31;;;;;;;12.40;7.90;;;;;;;;;;337588;29;928;-81
2022/10/08 00:41:44;;;;;;;12.45;7.63;;;;;;;;;;337501;29;928;-81
2022/10/08 00:41:54;;;;;;;12.25;7.38;;;;;;;;;;338751;29;986;-81
2022/10/08 00:42:05;;;;;;;11.50;7.32;;;;;;;;;;338871;29;924;-82
2022/10/08 00:42:15;;;;;;;12.27;7.28;;;;;;;;;;338378;29;1191;-81
2022/10/08 00:42:26;;;;;;;13.60;7.50;;;;;;;;;;338833;29;1432;-81
2022/10/08 00:42:37;;;;;;;12.13;7.35;;;;;;;;;;341524;29;817;-81
2022/10/08 00:42:47;;;;;;;12.40;7.07;;;;;;;;;;337294;29;1297;-81
2022/10/08 00:42:59;;;;;;;11.43;7.30;;;;;;;;;;340056;29;1326;-80
2022/10/08 00:43:14;;;;;;;12.95;7.28;;;;;;;;;;340179;29;812;-81
2022/10/08 00:44:04;;;;;;;12.88;7.07;;;;;;;;;;335881;29;2152;-80
2022/10/08 00:44:45;;;;;;;10.43;7.53;;;;;;;;;;337872;29;1061;-81
2022/10/08 00:44:57;;;;;;;11.43;7.53;;;;;;;;;;340057;28;927;-81
2022/10/08 00:45:11;;;;;;;11.45;7.50;;;;;;;;;;341239;29;1571;-81
2022/10/08 00:45:21;;;;;;;11.45;7.43;;;;;;;;;;342487;28;1383;-80
2022/10/08 00:45:32;;;;;;;11.48;7.88;;;;;;;;;;342823;28;1483;-81
2022/10/08 00:45:43;;;;;;;11.60;7.60;;;;;;;;;;340081;29;887;-81
2022/10/08 00:45:53;;;;;;;12.43;7.38;;;;;;;;;;340205;29;902;-81
2022/10/08 00:46:04;;;;;;;12.52;7.30;;;;;;;;;;341368;28;1239;-81
2022/10/08 00:46:25;;;;;;;12.13;7.83;;;;;;;;;;341085;29;1398;-81
2022/10/08 00:46:40;;;;;;;12.00;7.97;;;;;;;;;;341424;29;977;-82
2022/10/08 00:46:50;;;;;;;11.77;7.70;;;;;;;;;;341374;29;1225;-81
2022/10/08 00:47:01;;;;;;;11.85;7.47;;;;;;;;;;338879;29;958;-81
2022/10/08 00:47:36;;;;;;;10.90;7.40;;;;;;;;;;338552;29;903;-81
2022/10/08 00:47:49;;;;;;;12.27;7.78;;;;;;;;;;338871;29;892;-82
2022/10/08 00:48:00;;;;;;;13.07;7.45;;;;;;;;;;341467;29;839;-80
2022/10/08 00:48:19;;;;;;;13.57;7.70;;;;;;;;;;341425;29;979;-80
2022/10/08 00:48:30;;;;;;;10.68;7.68;;;;;;;;;;341528;29;895;-82
2022/10/08 00:48:40;;;;;;;11.63;7.37;;;;;;;;;;341489;29;1404;-80
2022/10/08 00:49:00;;;;;;;12.07;7.60;;;;;;;;;;341429;28;1296;-81
2022/10/08 00:49:18;;;;;;;11.73;7.45;;;;;;;;;;340029;29;883;-81
2022/10/08 00:49:29;;;;;;;11.02;7.68;;;;;;;;;;340149;29;912;-81
2022/10/08 00:49:40;;;;;;;11.18;7.88;;;;;;;;;;341586;29;871;-81
2022/10/08 00:49:53;;;;;;;11.55;7.78;;;;;;;;;;338756;29;1315;-81
2022/10/08 00:50:31;;;;;;;10.98;7.75;;;;;;;;;;341337;29;1421;-81
2022/10/08 00:50:42;;;;;;;11.52;7.70;;;;;;;;;;340153;29;900;-81
2022/10/08 00:50:53;;;;;;;11.73;7.55;;;;;;;;;;341223;28;1214;-81
2022/10/08 00:51:04;;;;;;;12.63;7.80;;;;;;;;;;338700;29;1230;-81
2022/10/08 00:51:14;;;;;;;11.10;7.68;;;;;;;;;;338809;29;903;-82
2022/10/08 00:51:25;;;;;;;11.20;7.77;;;;;;;;;;339994;29;887;-80
2022/10/08 00:51:36;;;;;;;11.45;7.65;;;;;;;;;;340224;29;880;-81
2022/10/08 00:51:50;;;;;;;13.13;7.68;;;;;;;;;;341487;29;813;-82
2022/10/08 00:52:01;;;;;;;12.52;7.50;;;;;;;;;;340164;29;975;-80
2022/10/08 00:52:11;;;;;;;11.95;7.70;;;;;;;;;;341286;29;1216;-81
2022/10/08 00:52:22;;;;;;;10.80;7.43;;;;;;;;;;342477;28;1420;-81
2022/10/08 00:52:34;;;;;;;10.80;7.80;;;;;;;;;;341557;29;868;-80
2022/10/08 00:53:10;;;;;;;10.82;8.10;;;;;;;;;;341506;29;946;-82
2022/10/08 00:53:20;;;;;;;11.75;7.78;;;;;;;;;;340945;29;1165;-81
2022/10/08 00:53:31;;;;;;;11.60;7.68;;;;;;;;;;342748;28;1165;-82
2022/10/08 00:53:42;;;;;;;11.32;7.88;;;;;;;;;;341412;29;1487;-81
2022/10/08 00:53:53;;;;;;;11.80;7.80;;;;;;;;;;341426;29;1405;-81
2022/10/08 00:54:03;;;;;;;10.90;7.47;;;;;;;;;;342764;28;847;-81
2022/10/08 00:54:14;;;;;;;11.90;7.35;;;;;;;;;;342650;28;1401;-81
2022/10/08 00:54:25;;;;;;;10.75;7.47;;;;;;;;;;342481;28;1344;-80
2022/10/08 00:54:35;;;;;;;11.40;7.87;;;;;;;;;;340003;29;802;-80
2022/10/08 00:54:48;;;;;;;11.50;7.60;;;;;;;;;;341181;29;1312;-82
2022/10/08 00:55:05;;;;;;;12.18;7.50;;;;;;;;;;340220;29;880;-82
2022/10/08 00:55:18;;;;;;;15.55;8.43;;;;;;;;;;340009;29;994;-81
2022/10/08 00:55:29;;;;;;;15.73;8.85;;;;;;;;;;338575;29;978;-81
2022/10/08 00:55:40;;;;;;;12.60;8.48;;;;;;;;;;341407;29;1395;-81
2022/10/08 00:55:51;;;;;;;11.23;8.20;;;;;;;;;;341391;29;1422;-81
2022/10/08 00:56:02;;;;;;;10.43;8.03;;;;;;;;;;342730;28;1291;-81
2022/10/08 00:56:12;;;;;;;9.88;7.57;;;;;;;;;;342692;28;942;-81
2022/10/08 00:56:23;;;;;;;10.98;7.80;;;;;;;;;;342491;28;1927;-81
2022/10/08 00:56:34;;;;;;;11.17;7.60;;;;;;;;;;342899;28;870;-81
2022/10/08 00:56:48;;;;;;;11.43;7.95;;;;;;;;;;341388;29;931;-82
2022/10/08 00:56:59;;;;;;;10.93;7.82;;;;;;;;;;342891;28;879;-82
2022/10/08 00:57:10;;;;;;;12.43;8.07;;;;;;;;;;340038;29;824;-81
2022/10/08 00:57:21;;;;;;;13.00;8.27;;;;;;;;;;341504;29;963;-82
2022/10/08 00:57:33;;;;;;;12.60;8.43;;;;;;;;;;339864;29;1365;-80
2022/10/08 00:57:44;;;;;;;12.88;8.43;;;;;;;;;;340049;29;1298;-82
2022/10/08 00:58:21;;;;;;;13.07;8.10;;;;;;;;;;341465;29;1178;-81
2022/10/08 00:58:32;;;;;;;12.13;7.72;;;;;;;;;;337271;29;966;-82
2022/10/08 00:58:42;;;;;;;11.75;7.93;;;;;;;;;;337942;29;1202;-81
2022/10/08 00:58:53;;;;;;;11.27;7.87;;;;;;;;;;341480;29;1166;-81
2022/10/08 00:59:04;;;;;;;10.70;7.85;;;;;;;;;;341484;29;840;-81
2022/10/08 00:59:14;;;;;;;10.93;7.93;;;;;;;;;;341271;29;1510;-81
2022/10/08 00:59:25;;;;;;;11.47;7.87;;;;;;;;;;342635;28;788;-81
2022/10/08 00:59:36;;;;;;;13.75;8.20;;;;;;;;;;341539;29;832;-81
2022/10/08 00:59:46;;;;;;;13.90;7.82;;;;;;;;;;340012;29;1348;-82
2022/10/08 00:59:57;;;;;;;12.80;8.00;;;;;;;;;;338912;29;848;-80
2022/10/08 01:00:10;;;;;;;11.48;8.05;;;;;;;;;;338753;29;864;-81
2022/10/08 01:00:22;;;;;;;12.43;8.70;;;;;;;;;;338721;29;940;-80
2022/10/08 01:00:32;;;;;;;12.95;8.55;;;;;;;;;;338665;29;848;-81
2022/10/08 01:00:43;;;;;;;13.93;8.88;;;;;;;;;;340114;29;864;-80
2022/10/08 01:00:53;;;;;;;11.97;7.73;;;;;;;;;;340139;29;1344;-81
2022/10/08 01:01:04;;;;;;;10.48;7.25;;;;;;;;;;338685;29;1181;-81
2022/10/08 01:01:15;;;;;;;10.00;7.47;;;;;;;;;;339934;29;1215;-81
2022/10/08 01:01:25;;;;;;;10.30;7.43;;;;;;;;;;341230;29;1429;-80
2022/10/08 01:01:36;;;;;;;10.65;7.70;;;;;;;;;;342827;28;1288;-82
2022/10/08 01:01:47;;;;;;;10.68;7.68;;;;;;;;;;341476;29;844;-81
2022/10/08 01:01:57;;;;;;;12.33;7.73;;;;;;;;;;341256;29;1306;-80
2022/10/08 01:02:10;;;;;;;13.07;7.73;;;;;;;;;;339626;29;1226;-80
2022/10/08 01:02:20;;;;;;;12.90;7.75;;;;;;;;;;340125;29;832;-81
2022/10/08 01:02:31;;;;;;;11.68;7.70;;;;;;;;;;339910;29;903;-81
2022/10/08 01:02:41;;;;;;;10.07;7.37;;;;;;;;;;338667;29;960;-81
2022/10/08 01:02:52;;;;;;;10.18;7.72;;;;;;;;;;340052;29;1275;-82
2022/10/08 01:03:03;;;;;;;11.70;8.10;;;;;;;;;;340139;29;837;-82
2022/10/08 01:03:13;;;;;;;13.43;8.40;;;;;;;;;;340017;29;1356;-82
2022/10/08 01:03:24;;;;;;;14.20;8.02;;;;;;;;;;340122;29;1233;-81
2022/10/08 01:03:35;;;;;;;12.75;7.90;;;;;;;;;;340107;29;1238;-81
2022/10/08 01:03:45;;;;;;;12.90;7.80;;;;;;;;;;340031;29;1222;-80
2022/10/08 01:03:57;;;;;;;13.00;8.07;;;;;;;;;;342677;28;1191;-81
2022/10/08 01:04:07;;;;;;;12.77;9.05;;;;;;;;;;342679;28;1295;-81
2022/10/08 01:04:18;;;;;;;11.95;8.93;;;;;;;;;;342655;28;1605;-80
2022/10/08 01:04:28;;;;;;;11.97;9.00;;;;;;;;;;342480;28;1184;-81
2022/10/08 01:04:39;;;;;;;12.02;8.15;;;;;;;;;;341428;28;1348;-81
2022/10/08 01:04:49;;;;;;;12.20;7.93;;;;;;;;;;341481;29;848;-81
2022/10/08 01:05:00;;;;;;;11.40;8.00;;;;;;;;;;341263;28;1252;-81
2022/10/08 01:05:12;;;;;;;10.80;7.82;;;;;;;;;;340189;29;836;-81
2022/10/08 01:06:03;;;;;;;10.40;8.07;;;;;;;;;;341410;29;856;-81
2022/10/08 01:06:26;;;;;;;12.93;8.63;;;;;;;;;;340012;29;876;-81
2022/10/08 01:06:48;;;;;;;11.75;8.32;;;;;;;;;;340005;29;1323;-81
2022/10/08 01:07:02;;;;;;;13.32;9.07;;;;;;;;;;341379;29;932;-81
2022/10/08 01:07:19;;;;;;;12.80;8.93;;;;;;;;;;342706;28;1514;-81
2022/10/08 01:07:38;;;;;;;12.05;8.40;;;;;;;;;;341640;28;1247;-80
2022/10/08 01:08:13;;;;;;;11.40;8.43;;;;;;;;;;342620;28;1413;-81
2022/10/08 01:08:27;;;;;;;11.77;8.55;;;;;;;;;;341003;29;895;-81
2022/10/08 01:09:04;;;;;;;12.57;8.60;;;;;;;;;;340084;29;1289;-80
2022/10/08 01:09:19;;;;;;;13.75;8.82;;;;;;;;;;339251;29;1291;-81
2022/10/08 01:09:37;;;;;;;13.23;9.60;;;;;;;;;;340680;29;1220;-80
2022/10/08 01:09:58;;;;;;;13.20;9.43;;;;;;;;;;341331;29;908;-80
2022/10/08 01:10:11;;;;;;;14.98;9.10;;;;;;;;;;340093;28;1314;-81
2022/10/08 01:10:45;;;;;;;15.85;9.35;;;;;;;;;;342608;28;1244;-81
2022/10/08 01:11:16;;;;;;;11.23;8.88;;;;;;;;;;335964;29;1180;-80
2022/10/08 01:11:26;;;;;;;11.43;8.15;;;;;;;;;;336029;29;963;-81
2022/10/08 01:11:51;;;;;;;12.10;8.45;;;;;;;;;;336034;29;845;-81
2022/10/08 01:12:24;;;;;;;11.90;8.63;;;;;;;;;;335984;29;1331;-80
2022/10/08 01:12:57;;;;;;;12.05;8.57;;;;;;;;;;338583;29;984;-81
2022/10/08 01:13:07;;;;;;;10.88;9.07;;;;;;;;;;338749;29;1233;-81
2022/10/08 01:13:40;;;;;;;12.10;9.52;;;;;;;;;;338832;29;887;-81
2022/10/08 01:14:00;;;;;;;13.18;9.25;;;;;;;;;;338773;29;908;-81
2022/10/08 01:14:28;;;;;;;11.95;8.68;;;;;;;;;;340018;29;1435;-81
2022/10/08 01:14:59;;;;;;;11.88;8.25;;;;;;;;;;341192;29;965;-80
2022/10/08 01:15:28;;;;;;;11.20;8.80;;;;;;;;;;342781;28;1081;-80
2022/10/08 01:16:07;;;;;;;12.07;9.00;;;;;;;;;;341116;29;1433;-80
2022/10/08 01:16:36;;;;;;;12.48;8.75;;;;;;;;;;339920;29;1911;-81
2022/10/08 01:17:05;;;;;;;13.90;9.40;;;;;;;;;;339840;29;933;-81
2022/10/08 01:17:35;;;;;;;13.20;9.73;;;;;;;;;;340125;29;872;-81
2022/10/08 01:17:53;;;;;;;12.82;8.50;;;;;;;;;;340110;29;959;-81
2022/10/08 01:18:09;;;;;;;12.63;8.43;;;;;;;;;;340009;29;1427;-81
2022/10/08 01:18:25;;;;;;;12.70;8.85;;;;;;;;;;338797;29;928;-80
2022/10/08 01:18:39;;;;;;;12.82;9.07;;;;;;;;;;341076;28;1365;-81
2022/10/08 01:19:10;;;;;;;12.52;8.95;;;;;;;;;;341423;29;860;-81
2022/10/08 01:19:33;;;;;;;11.68;8.63;;;;;;;;;;341312;29;892;-81
2022/10/08 01:20:20;;;;;;;10.00;8.00;;;;;;;;;;340082;29;931;-82
2022/10/08 01:20:36;;;;;;;14.80;8.70;;;;;;;;;;341795;28;1154;-80
2022/10/08 01:21:01;;;;;;;13.00;9.10;;;;;;;;;;342059;28;857;-81
2022/10/08 01:21:36;;;;;;;15.65;9.30;;;;;;;;;;342792;28;867;-81
2022/10/08 01:22:12;;;;;;;12.32;8.93;;;;;;;;;;340000;29;845;-81
2022/10/08 01:22:59;;;;;;;10.85;9.63;;;;;;;;;;340022;29;1666;-80
2022/10/08 01:23:48;;;;;;;12.88;8.88;;;;;;;;;;344905;28;938;-80
2022/10/08 01:24:22;;;;;;;13.23;8.43;;;;;;;;;;342618;28;934;-80
2022/10/08 01:25:53;;;;;;;11.77;8.40;;;;;;;;;;341337;29;982;-81
2022/10/08 01:26:30;;;;;;;13.05;8.73;;;;;;;;;;340052;29;1948;-80
2022/10/08 01:26:52;;;;;;;14.10;8.43;;;;;;;;;;341201;29;836;-81